Flight Track Log - Related Links

Times and Time Zones

All times are in EDT time to prevent confusion due to time zone crossing. See the UAL6129 flight status page for this flight to view local times or setup timezone preferences in your user account.

Time Position Orientation Groundspeed Altitude Reporting Facility
EDT Latitude Longitude Course Direction KTS MPH feet Rate Location/Type
Wed 05:04:37 PM 39.7000 -86.3167 44° Northeast 174 200 1,400  Level Indianapolis TRACON
Wed 05:05:07 PM 39.6833 -86.3500 237° Southwest 171 197 2,400 2,204 Climbing Indianapolis TRACON
Wed 05:06:15 PM 39.7089 -86.4033 302° West 229 264 5,000 2,238 Climbing Indianapolis Center
Wed 05:07:00 PM 39.9039 -86.3000 North  Level FlightAware Approximate
Wed 05:07:13 PM 39.7667 -86.3667 26° Northeast 288 331 7,100  Level Indianapolis TRACON
Wed 05:08:00 PM 39.9670 -86.3000 North  Level FlightAware Approximate
Wed 05:08:13 PM 39.8500 -86.3167 25° Northeast 303 349 9,600  Level Indianapolis TRACON
Wed 05:09:00 PM 40.0179 -86.2586 43° Northeast  Level FlightAware Approximate
Wed 05:09:18 PM 39.9183 -86.2667 29° Northeast 304 350 11,300  Level Chicago Center
Wed 05:10:00 PM 40.0823 -86.1800 44° Northeast  Level FlightAware Approximate
Wed 05:10:20 PM 40.0247 -86.2003 26° Northeast 355 409 13,000  Level Chicago Center
Wed 05:11:22 PM 40.1214 -86.1586 18° North 365 420 14,500 1,742 Climbing Chicago Center
Wed 05:12:24 PM 40.2228 -86.1675 356° North 361 415 16,600 1,839 Climbing Chicago Center
Wed 05:13:26 PM 40.3256 -86.1794 355° North 367 422 18,300 1,680 Climbing Chicago Center
Wed 05:14:29 PM 40.4297 -86.1911 355° North 372 428 20,100 1,296 Climbing Chicago Center
Wed 05:15:31 PM 40.5372 -86.2031 355° North 384 442 21,000 435 Climbing Chicago Center
Wed 05:16:33 PM 40.6542 -86.2144 356° North 414 476 21,000  Level Chicago Center
Wed 05:17:35 PM 40.7583 -86.3153 324° Northwest 420 483 21,000  Level Chicago Center
Wed 05:18:37 PM 40.8381 -86.4278 313° West 421 484 21,000  Level Chicago Center
Wed 05:19:39 PM 40.9192 -86.5444 313° West 427 491 21,000  Level Chicago Center
Wed 05:20:41 PM 40.9975 -86.6581 312° West 423 487 21,000 -387 Level Chicago Center
Wed 05:21:43 PM 41.0897 -86.7908 313° West 413 475 20,200 -1,548 Descending Chicago Center
Wed 05:22:45 PM 41.1656 -86.9000 313° West 406 467 17,800 -2,516 Descending Chicago Center
Wed 05:23:47 PM 41.2381 -87.0050 313° West 390 449 15,000 -2,736 Descending Chicago Center
Wed 05:24:50 PM 41.3058 -87.1078 311° West 378 435 12,100 -1,968 Descending Chicago Center
Wed 05:25:52 PM 41.3758 -87.2094 313° West 375 432 10,900 -923 Descending Chicago Center
Wed 05:26:08 PM 41.4167 -87.2500 323° Northwest 392 451 10,900 -686 Level Chicago TRACON
Wed 05:27:02 PM 41.4833 -87.3333 317° Northwest 380 437 10,100 -450 Descending Chicago TRACON
Wed 05:28:08 PM 41.5667 -87.4333 318° Northwest 378 435 10,000 -103 Descending Chicago TRACON
Wed 05:28:58 PM 41.6333 -87.5017 323° Northwest 378 435 9,900 -53 Descending Chicago Center
Wed 05:30:01 PM 41.7147 -87.5936 320° Northwest 387 445 9,900 -387 Level Chicago Center
Wed 05:31:02 PM 41.8092 -87.6625 331° Northwest 318 366 9,100 -1,086 Descending Chicago Center
Wed 05:31:57 PM 41.8667 -87.7167 325° Northwest 296 341 7,800 -1,041 Descending Chicago TRACON
Wed 05:33:03 PM 41.9500 -87.7333 352° North 259 298 7,000 -1,150 Descending Chicago TRACON
Wed 05:33:57 PM 42.0167 -87.7167 11° North 247 284 5,500 -1,895 Descending Chicago TRACON
Wed 05:34:57 PM 42.0833 -87.7333 349° North 254 292 3,400 -1,381 Descending Chicago TRACON
Wed 05:36:03 PM 42.0833 -87.8000 270° West 206 237 2,600 -727 Descending Chicago TRACON

Login

Don't have an account? Register now (free) for customized features, flight alerts, and more!